createdAt,value
2014-09-16T05:43:17.531Z,101875
2014-09-16T05:49:18.026Z,101864
2014-09-16T05:58:18.685Z,101864
2014-09-16T06:07:19.342Z,101861
2014-09-16T06:13:19.838Z,101855
2014-09-16T06:21:20.448Z,101850
2014-09-16T06:30:21.089Z,101865
2014-09-16T06:38:21.699Z,101862
2014-09-16T06:45:22.259Z,101856
2014-09-16T06:51:22.755Z,101865
2014-09-16T06:59:23.395Z,101862
2014-09-16T07:08:24.054Z,101865
2014-09-16T07:16:24.647Z,101873
2014-09-16T07:25:25.304Z,101862
2014-09-16T07:34:25.963Z,101865
2014-09-16T07:41:26.523Z,101856
2014-09-16T07:50:27.180Z,101865
2014-09-16T08:00:27.889Z,101856
2014-09-16T08:07:28.448Z,101862
2014-09-16T08:15:29.057Z,101862
2014-09-16T08:23:29.651Z,101847
2014-09-16T08:32:30.307Z,101865
2014-09-16T08:42:31.031Z,101853
2014-09-16T08:51:31.688Z,101841
2014-09-16T08:59:32.282Z,101832
2014-09-16T09:07:32.891Z,101841
2014-09-16T09:17:33.598Z,101850
2014-09-16T09:25:34.207Z,101838
2014-09-16T09:32:34.767Z,101835
2014-09-16T09:40:35.582Z,101823
2014-09-16T09:47:36.224Z,101829
2014-09-16T09:54:36.789Z,101821
2014-09-16T10:01:37.355Z,101835
2014-09-16T10:09:37.966Z,101812
2014-09-16T10:17:38.576Z,101807
2014-09-16T10:27:39.281Z,101809
2014-09-16T10:36:39.940Z,101798
2014-09-16T10:44:40.549Z,101798
2014-09-16T10:53:41.206Z,101795
2014-09-16T11:00:41.768Z,101783
2014-09-16T11:08:42.360Z,101777
2014-09-16T11:14:42.856Z,101774
2014-09-16T11:23:43.530Z,101789
2014-09-16T11:31:44.123Z,101771
2014-09-16T11:39:44.734Z,101774
2014-09-16T11:47:45.341Z,101763
2014-09-16T11:57:46.048Z,101760
2014-09-16T12:06:46.707Z,101748
2014-09-16T12:15:47.395Z,101743
2014-09-16T12:23:47.973Z,101739
2014-09-16T17:23:41.190Z,101663
2014-09-16T17:32:41.847Z,101657
2014-09-16T17:40:42.457Z,101665
